createdAt,value
2019-04-29T00:01:22.332Z,12.13
2019-04-29T00:03:51.673Z,14.30
2019-04-29T00:06:20.740Z,13.90
2019-04-29T00:08:50.148Z,12.33
2019-04-29T00:11:19.399Z,13.63
2019-04-29T00:13:48.932Z,12.57
2019-04-29T00:16:25.804Z,12.60
2019-04-29T00:19:08.688Z,12.57
2019-04-29T00:21:38.893Z,16.43
2019-04-29T00:24:08.109Z,16.53
2019-04-29T00:26:38.451Z,15.33
2019-04-29T00:29:07.954Z,13.50
2019-04-29T00:31:37.449Z,11.80
2019-04-29T00:34:06.624Z,11.90
2019-04-29T00:36:55.852Z,13.97
2019-04-29T00:39:29.968Z,12.23
2019-04-29T00:42:12.775Z,11.13
2019-04-29T00:44:41.940Z,13.77
2019-04-29T00:47:11.177Z,14.47
2019-04-29T00:49:40.257Z,15.90
2019-04-29T00:52:09.328Z,17.53
2019-04-29T00:54:48.832Z,14.00
2019-04-29T00:57:18.224Z,16.50
2019-04-29T00:59:47.732Z,14.30
2019-04-29T01:02:17.299Z,17.93
2019-04-29T01:04:46.789Z,15.27
2019-04-29T01:07:16.301Z,15.17
2019-04-29T01:09:45.793Z,14.63
2019-04-29T01:12:15.290Z,18.17
2019-04-29T01:14:44.868Z,18.00
2019-04-29T01:17:14.045Z,17.13
2019-04-29T01:19:43.446Z,13.20
2019-04-29T01:22:12.950Z,18.07
2019-04-29T01:24:42.121Z,16.43
2019-04-29T01:27:13.181Z,15.03
2019-04-29T01:29:42.673Z,17.10
2019-04-29T01:32:11.912Z,16.63
2019-04-29T01:34:42.944Z,19.60
2019-04-29T01:37:12.452Z,14.90
2019-04-29T01:39:46.049Z,17.53
2019-04-29T01:42:20.129Z,18.50
2019-04-29T01:44:49.631Z,13.73
2019-04-29T01:47:18.801Z,16.60
2019-04-29T01:49:48.201Z,19.03
2019-04-29T01:52:17.363Z,14.60
2019-04-29T01:54:46.440Z,21.43
2019-04-29T01:57:15.516Z,17.33
2019-04-29T01:59:44.941Z,16.97
2019-04-29T02:02:14.173Z,20.03
2019-04-29T02:04:43.572Z,18.13
2019-04-29T02:07:13.424Z,18.60
2019-04-29T02:09:44.284Z,18.63
2019-04-29T02:12:13.784Z,19.33
2019-04-29T02:14:43.281Z,17.97
2019-04-29T02:17:12.857Z,18.33
2019-04-29T02:19:43.421Z,19.03
2019-04-29T02:22:15.330Z,16.10
2019-04-29T02:24:54.891Z,21.37
2019-04-29T02:27:24.399Z,17.27
2019-04-29T02:29:54.036Z,19.43
2019-04-29T02:32:23.915Z,19.67
2019-04-29T02:34:53.482Z,17.33
2019-04-29T02:37:24.629Z,18.63
2019-04-29T02:39:55.763Z,17.37
2019-04-29T02:42:42.958Z,19.87
2019-04-29T02:45:20.225Z,19.63
2019-04-29T02:47:49.690Z,24.00
2019-04-29T02:50:19.624Z,22.83
2019-04-29T02:52:49.125Z,20.80
2019-04-29T02:55:20.254Z,18.10
2019-04-29T02:57:54.101Z,26.37
2019-04-29T03:00:25.305Z,21.07
2019-04-29T03:03:14.662Z,18.37
2019-04-29T03:05:51.853Z,21.30
2019-04-29T03:08:21.490Z,20.23
2019-04-29T03:10:51.543Z,22.90
2019-04-29T03:13:21.470Z,18.27
2019-04-29T03:15:51.541Z,25.17
2019-04-29T03:18:22.914Z,23.83
2019-04-29T03:20:54.120Z,21.47
2019-04-29T03:23:24.929Z,25.10
2019-04-29T03:25:54.369Z,23.73
2019-04-29T03:28:23.913Z,21.07
2019-04-29T03:30:53.475Z,18.67
2019-04-29T03:33:22.978Z,22.20
2019-04-29T03:35:52.473Z,23.53
2019-04-29T03:38:21.977Z,20.73
2019-04-29T03:40:51.549Z,22.40
2019-04-29T03:43:21.112Z,25.13
2019-04-29T03:45:50.617Z,26.47
2019-04-29T03:48:20.226Z,25.07
2019-04-29T03:50:49.724Z,26.80
2019-04-29T03:53:19.212Z,26.03
2019-04-29T03:55:50.344Z,27.43
2019-04-29T03:58:19.852Z,22.60
2019-04-29T04:00:50.978Z,25.73
2019-04-29T04:03:27.932Z,26.17
2019-04-29T04:05:59.066Z,29.63
2019-04-29T04:08:35.956Z,23.60
2019-04-29T04:11:06.232Z,29.20
2019-04-29T04:13:35.737Z,23.80
2019-04-29T04:16:07.468Z,23.97
2019-04-29T04:18:37.498Z,31.13
2019-04-29T04:21:07.137Z,28.60
2019-04-29T04:23:36.649Z,24.03
2019-04-29T04:26:06.138Z,25.20
2019-04-29T04:28:35.640Z,23.77
2019-04-29T04:31:06.909Z,21.13
2019-04-29T04:33:36.332Z,23.77
2019-04-29T04:36:05.827Z,26.57
2019-04-29T04:38:35.333Z,29.47
2019-04-29T04:41:06.539Z,22.63
2019-04-29T04:43:35.772Z,25.03
2019-04-29T04:46:05.189Z,24.50
2019-04-29T04:48:34.688Z,32.77
2019-04-29T04:51:04.186Z,38.47
2019-04-29T04:53:33.686Z,39.33
2019-04-29T04:56:03.240Z,26.90
2019-04-29T04:58:32.740Z,26.40
2019-04-29T05:01:02.238Z,23.57
2019-04-29T05:03:31.740Z,25.53
2019-04-29T05:06:01.244Z,26.97
2019-04-29T05:08:30.741Z,24.07
2019-04-29T05:11:00.248Z,23.03
2019-04-29T05:13:29.741Z,24.50
2019-04-29T05:15:59.240Z,25.30
2019-04-29T05:18:28.744Z,27.03
2019-04-29T05:20:58.241Z,27.50
2019-04-29T05:23:27.741Z,22.60
2019-04-29T05:25:57.229Z,28.37
2019-04-29T05:28:26.733Z,26.57
2019-04-29T05:30:56.224Z,28.47
2019-04-29T05:33:25.725Z,27.63
2019-04-29T05:36:14.961Z,32.07
2019-04-29T05:38:46.094Z,26.93
2019-04-29T05:41:15.667Z,18.87
2019-04-29T05:43:46.468Z,25.50
2019-04-29T05:46:21.704Z,23.40
2019-04-29T05:48:51.060Z,25.50
2019-04-29T05:51:28.560Z,26.70
2019-04-29T05:54:02.565Z,28.67
2019-04-29T05:56:32.082Z,30.80
2019-04-29T05:59:01.577Z,28.50
2019-04-29T06:01:31.539Z,31.90
2019-04-29T06:04:01.109Z,30.30
2019-04-29T06:06:30.611Z,37.90
2019-04-29T06:09:00.105Z,34.03
2019-04-29T06:11:29.593Z,32.90
2019-04-29T06:13:59.109Z,31.73
2019-04-29T06:16:28.600Z,30.37
2019-04-29T06:19:00.264Z,28.97
2019-04-29T06:21:29.377Z,32.73
2019-04-29T06:23:59.320Z,34.53
2019-04-29T06:26:30.180Z,33.23
2019-04-29T06:28:59.761Z,33.37
2019-04-29T06:31:29.341Z,34.17
2019-04-29T06:34:00.545Z,34.43
2019-04-29T06:36:30.073Z,37.63
2019-04-29T06:38:59.582Z,40.37
2019-04-29T06:41:29.152Z,40.00
2019-04-29T06:44:00.608Z,38.13
2019-04-29T06:46:30.018Z,39.77
2019-04-29T06:49:10.057Z,34.93
2019-04-29T06:51:30.808Z,93.13
2019-04-29T06:54:00.381Z,99.70
2019-04-29T06:56:29.888Z,95.63
2019-04-29T06:58:59.393Z,109.67
2019-04-29T07:01:28.920Z,84.43
2019-04-29T07:03:59.796Z,53.43
2019-04-29T07:06:30.197Z,45.90
2019-04-29T07:08:59.722Z,42.20
2019-04-29T07:11:31.854Z,47.63
2019-04-29T07:14:00.438Z,39.60
2019-04-29T07:16:32.086Z,43.90
2019-04-29T07:19:01.283Z,34.07
2019-04-29T07:21:30.929Z,41.07
2019-04-29T07:24:00.430Z,32.47
2019-04-29T07:26:30.118Z,33.43
2019-04-29T07:28:59.801Z,32.77
2019-04-29T07:31:33.418Z,33.17
2019-04-29T07:34:00.609Z,32.57
2019-04-29T07:36:30.172Z,31.70
2019-04-29T07:38:59.698Z,32.00
2019-04-29T07:41:29.201Z,31.83
2019-04-29T07:43:58.708Z,29.00
2019-04-29T07:46:55.148Z,25.50
2019-04-29T07:49:07.109Z,26.30
2019-04-29T07:51:39.533Z,27.33
2019-04-29T07:54:11.074Z,26.60
2019-04-29T07:56:42.406Z,27.07
2019-04-29T07:59:11.480Z,22.50
2019-04-29T08:01:41.173Z,26.40
2019-04-29T08:04:10.674Z,25.60
2019-04-29T08:06:43.047Z,24.80
2019-04-29T08:09:11.861Z,22.73
2019-04-29T08:11:41.744Z,22.13
2019-04-29T08:14:12.038Z,24.00
2019-04-29T08:16:41.538Z,26.73
2019-04-29T08:19:11.170Z,22.30
2019-04-29T08:21:40.684Z,22.63
2019-04-29T08:24:11.521Z,23.00
2019-04-29T08:26:47.314Z,23.07
2019-04-29T08:29:12.973Z,22.83
2019-04-29T08:31:42.668Z,23.90
2019-04-29T08:34:12.164Z,24.50
2019-04-29T08:36:41.667Z,23.83
2019-04-29T08:39:11.178Z,27.33
2019-04-29T08:41:40.745Z,27.20
2019-04-29T08:44:20.655Z,27.90
2019-04-29T08:46:54.649Z,28.40
2019-04-29T08:49:24.216Z,27.00
2019-04-29T08:51:53.724Z,30.87
2019-04-29T08:54:23.304Z,26.73
2019-04-29T08:57:02.767Z,27.57
2019-04-29T08:59:24.899Z,25.00
2019-04-29T09:01:55.348Z,27.30
2019-04-29T09:04:28.483Z,26.77
2019-04-29T09:06:56.044Z,31.13
2019-04-29T09:09:29.214Z,32.00
2019-04-29T09:11:56.757Z,33.90
2019-04-29T09:14:26.340Z,30.27
2019-04-29T09:16:55.875Z,28.80
2019-04-29T09:19:25.368Z,28.97
2019-04-29T09:21:56.576Z,30.73
2019-04-29T09:24:26.082Z,28.63
2019-04-29T09:26:57.389Z,27.40
2019-04-29T09:29:34.632Z,31.77
2019-04-29T09:32:05.509Z,32.37
2019-04-29T09:34:35.021Z,30.47
2019-04-29T09:37:04.860Z,26.63
2019-04-29T09:39:42.878Z,29.23
2019-04-29T09:42:21.362Z,27.23
2019-04-29T09:44:58.273Z,30.77
2019-04-29T09:47:28.163Z,29.43
2019-04-29T09:49:57.672Z,23.97
2019-04-29T09:52:27.192Z,25.13
2019-04-29T09:54:59.492Z,23.70
2019-04-29T09:57:27.973Z,23.03
2019-04-29T10:00:00.259Z,21.30
2019-04-29T10:02:40.880Z,22.93
2019-04-29T10:05:28.324Z,22.87
2019-04-29T10:07:57.921Z,21.30
2019-04-29T10:10:27.428Z,26.27
2019-04-29T10:12:57.108Z,18.13
2019-04-29T10:15:31.132Z,20.73
2019-04-29T10:18:02.358Z,21.27
2019-04-29T10:20:33.732Z,21.97
2019-04-29T10:23:03.434Z,20.03
2019-04-29T10:25:33.007Z,20.23
2019-04-29T10:28:02.585Z,17.23
2019-04-29T10:30:32.613Z,20.53
2019-04-29T10:33:02.223Z,23.03
2019-04-29T10:35:31.785Z,22.27
2019-04-29T10:38:02.900Z,20.80
2019-04-29T10:40:34.548Z,22.73
2019-04-29T10:43:15.522Z,22.37
2019-04-29T10:45:51.509Z,22.80
2019-04-29T10:48:34.478Z,19.93
2019-04-29T10:51:05.129Z,20.17
2019-04-29T10:53:34.896Z,19.97
2019-04-29T10:56:05.862Z,20.00
2019-04-29T10:58:35.969Z,22.70
2019-04-29T11:01:29.617Z,17.53
2019-04-29T11:04:00.698Z,20.17
2019-04-29T11:06:35.661Z,19.83
2019-04-29T11:09:09.706Z,22.97
2019-04-29T11:11:38.476Z,26.10
2019-04-29T11:14:08.059Z,21.20
2019-04-29T11:16:46.437Z,18.63
2019-04-29T11:19:09.288Z,20.37
2019-04-29T11:21:39.088Z,18.73
2019-04-29T11:24:10.521Z,19.67
2019-04-29T11:26:44.615Z,21.50
2019-04-29T11:29:12.950Z,18.03
2019-04-29T11:31:42.709Z,19.27
2019-04-29T11:34:15.869Z,18.80
2019-04-29T11:36:45.145Z,21.23
2019-04-29T11:39:15.785Z,22.37
2019-04-29T11:41:45.301Z,19.37
2019-04-29T11:44:14.805Z,23.97
2019-04-29T11:46:48.618Z,19.07
2019-04-29T11:49:17.430Z,20.17
2019-04-29T11:52:08.483Z,20.77
2019-04-29T11:54:19.016Z,20.60
2019-04-29T11:56:48.541Z,21.03
2019-04-29T11:59:34.908Z,19.53
2019-04-29T12:02:15.447Z,19.80
2019-04-29T12:04:46.627Z,22.40
2019-04-29T12:07:16.320Z,25.63
2019-04-29T12:09:46.629Z,23.90
2019-04-29T12:12:17.310Z,20.83
2019-04-29T12:14:48.521Z,23.93
2019-04-29T12:17:22.179Z,17.83
2019-04-29T12:20:09.783Z,17.97
2019-04-29T12:22:48.022Z,16.00
2019-04-29T12:25:11.135Z,17.60
2019-04-29T12:27:40.817Z,17.90
2019-04-29T12:30:12.205Z,17.77
2019-04-29T12:33:01.375Z,23.43
2019-04-29T12:35:31.567Z,15.83
2019-04-29T12:38:10.530Z,14.47
2019-04-29T12:40:56.902Z,12.80
2019-04-29T12:43:42.845Z,17.07
2019-04-29T12:46:14.058Z,15.33
2019-04-29T12:48:43.730Z,15.30
2019-04-29T12:51:13.317Z,15.07
2019-04-29T12:53:44.822Z,15.13
2019-04-29T12:56:35.072Z,11.90
2019-04-29T12:59:05.283Z,10.03
2019-04-29T13:01:50.795Z,7.53
2019-04-29T13:04:10.707Z,6.00
2019-04-29T13:06:48.021Z,9.10
2019-04-29T13:09:35.756Z,15.33
2019-04-29T13:12:19.062Z,7.70
2019-04-29T13:14:39.159Z,8.27
2019-04-29T13:17:30.033Z,8.53
2019-04-29T13:20:02.640Z,6.33
2019-04-29T13:22:33.352Z,10.90
2019-04-29T13:25:03.081Z,8.10
2019-04-29T13:27:32.584Z,13.03
2019-04-29T13:30:02.073Z,9.60
2019-04-29T13:32:35.536Z,8.13
2019-04-29T13:35:10.684Z,7.57
2019-04-29T13:37:39.073Z,8.43
2019-04-29T13:40:09.601Z,11.90
2019-04-29T13:42:39.140Z,12.67
2019-04-29T13:45:13.386Z,9.77
2019-04-29T13:48:01.783Z,15.57
2019-04-29T13:50:39.920Z,11.93
2019-04-29T13:53:05.889Z,11.23
2019-04-29T13:55:47.635Z,10.33
2019-04-29T13:58:06.901Z,10.97
2019-04-29T14:00:40.769Z,9.27
2019-04-29T14:03:12.894Z,11.03
2019-04-29T14:05:42.632Z,8.77
2019-04-29T14:08:12.188Z,8.40
2019-04-29T14:10:41.957Z,8.17
2019-04-29T14:13:16.291Z,8.53
2019-04-29T14:15:42.721Z,9.77
2019-04-29T14:18:13.738Z,7.67
2019-04-29T14:20:47.265Z,8.30
2019-04-29T14:23:14.589Z,10.03
2019-04-29T14:25:44.369Z,10.13
2019-04-29T14:28:13.927Z,8.73
2019-04-29T14:30:47.386Z,7.37
2019-04-29T14:33:19.044Z,7.97
2019-04-29T14:35:50.708Z,10.87
2019-04-29T14:38:20.205Z,8.33
2019-04-29T14:40:49.705Z,9.17
2019-04-29T14:43:37.213Z,8.10
2019-04-29T14:46:17.102Z,7.93
2019-04-29T14:48:48.263Z,7.50
2019-04-29T14:51:17.825Z,8.00
2019-04-29T14:53:56.175Z,7.93
2019-04-29T14:56:18.686Z,10.63
2019-04-29T14:58:48.349Z,5.83
2019-04-29T15:01:21.702Z,5.10
2019-04-29T15:03:55.597Z,7.20
2019-04-29T15:06:28.475Z,6.97
2019-04-29T15:08:56.684Z,6.53
2019-04-29T15:11:31.808Z,5.17
2019-04-29T15:14:01.256Z,6.90
2019-04-29T15:16:34.934Z,7.00
2019-04-29T15:19:12.779Z,6.80
2019-04-29T15:21:47.525Z,6.47
2019-04-29T15:24:17.710Z,6.67
2019-04-29T15:26:47.356Z,7.63
2019-04-29T15:29:16.929Z,6.57
2019-04-29T15:31:47.022Z,7.60
2019-04-29T15:34:17.713Z,9.67
2019-04-29T15:36:47.272Z,5.60
2019-04-29T15:39:16.855Z,5.73
2019-04-29T15:41:46.659Z,8.17
2019-04-29T15:44:20.694Z,6.37
2019-04-29T15:46:47.849Z,5.30
2019-04-29T15:49:20.117Z,5.70
2019-04-29T15:51:50.723Z,4.13
2019-04-29T15:54:20.375Z,4.50
2019-04-29T15:56:49.874Z,6.17
2019-04-29T15:59:19.468Z,5.57
2019-04-29T16:01:49.321Z,5.57
2019-04-29T16:04:23.371Z,6.50
2019-04-29T16:06:58.948Z,3.70
2019-04-29T16:09:50.339Z,5.03
2019-04-29T16:12:13.984Z,7.57
2019-04-29T16:14:36.949Z,5.73
2019-04-29T16:17:06.511Z,7.23
2019-04-29T16:19:36.081Z,7.47
2019-04-29T16:22:05.317Z,6.73
2019-04-29T16:24:38.433Z,5.53
2019-04-29T16:27:08.369Z,4.20
2019-04-29T16:29:36.485Z,3.60
2019-04-29T16:32:07.628Z,6.00
2019-04-29T16:34:37.558Z,9.00
2019-04-29T16:37:08.030Z,5.43
2019-04-29T16:39:37.516Z,6.03
2019-04-29T16:42:08.717Z,7.07
2019-04-29T16:44:38.532Z,5.63
2019-04-29T16:47:13.084Z,5.13
2019-04-29T16:49:41.051Z,7.30
2019-04-29T16:52:10.359Z,5.53
2019-04-29T16:54:39.765Z,3.43
2019-04-29T16:57:09.451Z,4.43
2019-04-29T16:59:38.940Z,7.17
2019-04-29T17:02:08.428Z,7.00
2019-04-29T17:04:37.924Z,7.80
2019-04-29T17:07:13.048Z,8.93
2019-04-29T17:09:43.433Z,9.53
2019-04-29T17:12:12.732Z,8.77
2019-04-29T17:15:02.412Z,7.47
2019-04-29T17:17:17.405Z,8.33
2019-04-29T17:19:46.639Z,9.40
2019-04-29T17:22:25.501Z,11.13
2019-04-29T17:24:47.892Z,7.23
2019-04-29T17:27:21.614Z,9.30
2019-04-29T17:30:03.529Z,5.97
2019-04-29T17:32:44.205Z,7.53
2019-04-29T17:35:11.214Z,7.33
2019-04-29T17:37:41.112Z,8.10
2019-04-29T17:40:12.744Z,6.80
2019-04-29T17:42:43.562Z,8.80
2019-04-29T17:45:27.259Z,8.17
2019-04-29T17:47:48.960Z,8.97
2019-04-29T17:50:29.952Z,7.07
2019-04-29T17:52:53.567Z,6.00
2019-04-29T17:55:40.987Z,8.33
2019-04-29T17:58:19.338Z,11.63
2019-04-29T18:00:59.526Z,11.23
2019-04-29T18:03:29.452Z,8.57
2019-04-29T18:06:17.242Z,10.70
2019-04-29T18:08:55.021Z,8.23
2019-04-29T18:11:25.087Z,11.77
2019-04-29T18:13:57.009Z,7.33
2019-04-29T18:16:28.474Z,10.27
2019-04-29T18:19:02.645Z,11.63
2019-04-29T18:21:47.339Z,9.87
2019-04-29T18:24:18.880Z,12.40
2019-04-29T18:26:52.996Z,11.03
2019-04-29T18:29:22.281Z,10.40
2019-04-29T18:31:51.680Z,11.83
2019-04-29T18:34:21.252Z,10.63
2019-04-29T18:36:54.662Z,12.87
2019-04-29T18:39:26.854Z,11.90
2019-04-29T18:41:58.637Z,15.13
2019-04-29T18:44:26.173Z,13.40
2019-04-29T18:46:57.291Z,10.30
2019-04-29T18:49:26.982Z,10.83
2019-04-29T18:51:57.999Z,10.67
2019-04-29T18:54:27.749Z,10.23
2019-04-29T18:56:57.320Z,10.27
2019-04-29T18:59:33.497Z,11.93
2019-04-29T19:02:00.898Z,9.03
2019-04-29T19:04:30.832Z,9.90
2019-04-29T19:07:02.393Z,10.47
2019-04-29T19:09:35.909Z,9.50
2019-04-29T19:12:05.399Z,8.80
2019-04-29T19:14:35.418Z,12.10
2019-04-29T19:17:05.308Z,12.30
2019-04-29T19:19:39.265Z,10.00
2019-04-29T19:22:09.568Z,9.37
2019-04-29T19:24:39.176Z,10.37
2019-04-29T19:27:10.442Z,9.90
2019-04-29T19:29:43.246Z,8.97
2019-04-29T19:32:11.300Z,8.50
2019-04-29T19:34:43.338Z,9.20
2019-04-29T19:37:12.044Z,8.13
2019-04-29T19:39:41.529Z,6.43
2019-04-29T19:42:11.023Z,10.07
2019-04-29T19:44:40.505Z,7.13
2019-04-29T19:47:10.712Z,9.37
2019-04-29T19:49:44.669Z,7.40
2019-04-29T19:52:12.445Z,7.17
2019-04-29T19:54:41.941Z,7.53
2019-04-29T19:57:11.936Z,10.90
2019-04-29T19:59:50.391Z,9.80
2019-04-29T20:02:13.019Z,7.70
2019-04-29T20:04:52.431Z,10.67
2019-04-29T20:07:19.522Z,8.40
2019-04-29T20:09:54.290Z,8.43
2019-04-29T20:12:21.138Z,9.77
2019-04-29T20:14:58.307Z,8.50
2019-04-29T20:17:33.011Z,10.10
2019-04-29T20:20:05.504Z,12.57
2019-04-29T20:22:37.183Z,9.53
2019-04-29T20:25:07.469Z,10.67
2019-04-29T20:27:37.678Z,8.93
2019-04-29T20:30:16.388Z,9.10
2019-04-29T20:32:39.542Z,7.27
2019-04-29T20:35:09.661Z,5.97
2019-04-29T20:37:39.448Z,8.50
2019-04-29T20:40:09.308Z,8.67
2019-04-29T20:42:40.440Z,7.83
2019-04-29T20:45:10.252Z,8.17
2019-04-29T20:47:42.073Z,7.63
2019-04-29T20:50:13.902Z,11.13
2019-04-29T20:52:52.089Z,10.23
2019-04-29T20:55:21.261Z,8.77
2019-04-29T20:57:52.431Z,8.67
2019-04-29T21:00:24.772Z,12.67
2019-04-29T21:02:53.424Z,10.43
2019-04-29T21:05:24.941Z,10.80
2019-04-29T21:08:02.944Z,6.47
2019-04-29T21:10:26.894Z,15.47
2019-04-29T21:12:59.510Z,12.70
2019-04-29T21:15:36.604Z,9.87
2019-04-29T21:18:06.088Z,8.60
2019-04-29T21:20:35.606Z,10.87
2019-04-29T21:23:05.141Z,9.20
2019-04-29T21:25:35.423Z,13.73
2019-04-29T21:28:05.862Z,13.17
2019-04-29T21:30:42.343Z,9.47
2019-04-29T21:33:08.305Z,10.33
2019-04-29T21:35:45.560Z,9.27
2019-04-29T21:38:26.010Z,7.80
2019-04-29T21:41:15.518Z,9.87
2019-04-29T21:43:46.962Z,6.73
2019-04-29T21:46:18.043Z,10.33
2019-04-29T21:48:47.942Z,9.70
2019-04-29T21:51:17.553Z,10.73
2019-04-29T21:53:47.194Z,8.60
2019-04-29T21:56:16.769Z,10.47
2019-04-29T21:58:46.249Z,8.07
2019-04-29T22:01:16.253Z,10.00
2019-04-29T22:03:45.747Z,12.97
2019-04-29T22:06:15.238Z,11.83
2019-04-29T22:08:45.227Z,10.27
2019-04-29T22:11:15.521Z,11.03
2019-04-29T22:13:46.088Z,6.70
2019-04-29T22:16:17.174Z,6.67
2019-04-29T22:18:51.767Z,9.10
2019-04-29T22:21:21.875Z,8.07
2019-04-29T22:23:51.078Z,8.27
2019-04-29T22:26:23.696Z,6.90
2019-04-29T22:28:53.223Z,6.67
2019-04-29T22:31:26.927Z,7.00
2019-04-29T22:33:55.289Z,6.73
2019-04-29T22:36:25.006Z,8.13
2019-04-29T22:38:55.829Z,10.43
2019-04-29T22:41:32.984Z,9.03
2019-04-29T22:44:04.929Z,6.30
2019-04-29T22:46:35.684Z,6.43
2019-04-29T22:49:05.857Z,10.67
2019-04-29T22:51:35.615Z,7.13
2019-04-29T22:54:05.137Z,9.03
2019-04-29T22:56:36.056Z,6.00
2019-04-29T22:59:05.765Z,8.60
2019-04-29T23:01:36.343Z,6.90
2019-04-29T23:04:09.533Z,5.63
2019-04-29T23:06:39.795Z,5.87
2019-04-29T23:09:12.126Z,7.80
2019-04-29T23:11:40.786Z,5.87
2019-04-29T23:14:10.413Z,7.80
2019-04-29T23:16:41.467Z,9.40
2019-04-29T23:19:14.063Z,7.97
2019-04-29T23:21:47.207Z,5.57
2019-04-29T23:24:23.615Z,7.30
2019-04-29T23:26:54.830Z,7.57
2019-04-29T23:29:25.484Z,7.20
2019-04-29T23:31:55.375Z,6.73
2019-04-29T23:34:29.223Z,7.07
2019-04-29T23:36:56.170Z,5.80
2019-04-29T23:39:25.644Z,9.20
2019-04-29T23:41:55.441Z,12.00
2019-04-29T23:44:24.986Z,4.77
2019-04-29T23:46:54.141Z,7.37
2019-04-29T23:49:25.051Z,6.23
2019-04-29T23:51:54.285Z,6.13
2019-04-29T23:54:25.191Z,9.57
2019-04-29T23:57:02.432Z,6.87
2019-04-29T23:59:57.188Z,8.10
